sensor_id;sensor_type;location;lat;lon;timestamp;temperature;humidity
12504;DHT22;6316;48.118;-1.690;2023-03-16T09:18:40;15.30;99.90
12504;DHT22;6316;48.118;-1.690;2023-03-16T09:21:08;15.30;99.90
12504;DHT22;6316;48.118;-1.690;2023-03-16T09:23:35;15.40;99.90
12504;DHT22;6316;48.118;-1.690;2023-03-16T09:26:06;15.40;99.90
12504;DHT22;6316;48.118;-1.690;2023-03-16T09:28:32;15.50;99.90
12504;DHT22;6316;48.118;-1.690;2023-03-16T09:31:00;15.50;99.90
12504;DHT22;6316;48.118;-1.690;2023-03-16T09:33:27;15.60;99.90
12504;DHT22;6316;48.118;-1.690;2023-03-16T09:35:54;15.60;99.90
12504;DHT22;6316;48.118;-1.690;2023-03-16T09:38:22;15.70;99.90
12504;DHT22;6316;48.118;-1.690;2023-03-16T09:41:02;15.80;99.90
12504;DHT22;6316;48.118;-1.690;2023-03-16T09:46:44;15.70;99.90
12504;DHT22;6316;48.118;-1.690;2023-03-16T09:49:14;15.70;99.90
12504;DHT22;6316;48.118;-1.690;2023-03-16T09:52:18;15.80;99.90
12504;DHT22;6316;48.118;-1.690;2023-03-16T09:57:30;15.70;99.90
12504;DHT22;6316;48.118;-1.690;2023-03-16T10:03:15;15.80;99.90
12504;DHT22;6316;48.118;-1.690;2023-03-16T10:05:46;15.80;99.90
12504;DHT22;6316;48.118;-1.690;2023-03-16T10:08:15;15.90;99.90
12504;DHT22;6316;48.118;-1.690;2023-03-16T10:16:39;16.00;99.90
12504;DHT22;6316;48.118;-1.690;2023-03-16T10:21:52;16.00;99.90
12504;DHT22;6316;48.118;-1.690;2023-03-16T10:24:40;15.90;99.90
12504;DHT22;6316;48.118;-1.690;2023-03-16T10:27:16;15.90;99.90
12504;DHT22;6316;48.118;-1.690;2023-03-16T10:29:43;15.90;99.90
12504;DHT22;6316;48.118;-1.690;2023-03-16T10:32:14;16.00;99.90
12504;DHT22;6316;48.118;-1.690;2023-03-16T10:34:43;16.00;99.90
12504;DHT22;6316;48.118;-1.690;2023-03-16T10:37:12;16.00;99.90
12504;DHT22;6316;48.118;-1.690;2023-03-16T10:39:39;16.00;99.90
12504;DHT22;6316;48.118;-1.690;2023-03-16T10:42:14;16.10;99.90
12504;DHT22;6316;48.118;-1.690;2023-03-16T10:44:41;16.10;99.90
12504;DHT22;6316;48.118;-1.690;2023-03-16T10:47:20;16.10;99.90
12504;DHT22;6316;48.118;-1.690;2023-03-16T10:49:47;16.20;99.90
12504;DHT22;6316;48.118;-1.690;2023-03-16T10:57:23;16.30;99.90
12504;DHT22;6316;48.118;-1.690;2023-03-16T10:59:52;16.30;99.90
12504;DHT22;6316;48.118;-1.690;2023-03-16T11:02:23;16.30;99.90
12504;DHT22;6316;48.118;-1.690;2023-03-16T11:04:54;16.40;99.90
12504;DHT22;6316;48.118;-1.690;2023-03-16T11:07:22;16.50;99.90
12504;DHT22;6316;48.118;-1.690;2023-03-16T11:09:54;16.50;99.90
12504;DHT22;6316;48.118;-1.690;2023-03-16T11:12:28;16.60;99.90
12504;DHT22;6316;48.118;-1.690;2023-03-16T11:15:00;16.70;99.90
12504;DHT22;6316;48.118;-1.690;2023-03-16T11:17:41;16.80;99.90
12504;DHT22;6316;48.118;-1.690;2023-03-16T11:20:29;16.90;99.90
12504;DHT22;6316;48.118;-1.690;2023-03-16T11:22:57;17.10;99.90
12504;DHT22;6316;48.118;-1.690;2023-03-16T11:25:47;17.20;99.90
12504;DHT22;6316;48.118;-1.690;2023-03-16T11:28:38;17.30;99.90
12504;DHT22;6316;48.118;-1.690;2023-03-16T11:31:36;17.40;99.90
12504;DHT22;6316;48.118;-1.690;2023-03-16T11:34:17;17.50;99.90
12504;DHT22;6316;48.118;-1.690;2023-03-16T11:36:51;17.50;99.90
12504;DHT22;6316;48.118;-1.690;2023-03-16T11:53:49;17.70;99.90
12504;DHT22;6316;48.118;-1.690;2023-03-16T11:56:30;17.80;99.90
12504;DHT22;6316;48.118;-1.690;2023-03-16T12:01:57;17.90;99.90
12504;DHT22;6316;48.118;-1.690;2023-03-16T12:12:52;18.30;99.90
12504;DHT22;6316;48.118;-1.690;2023-03-16T12:15:38;18.40;99.90
12504;DHT22;6316;48.118;-1.690;2023-03-16T12:18:26;18.40;99.90
12504;DHT22;6316;48.118;-1.690;2023-03-16T12:23:32;18.50;99.90
12504;DHT22;6316;48.118;-1.690;2023-03-16T12:26:01;18.50;99.90
12504;DHT22;6316;48.118;-1.690;2023-03-16T12:28:29;18.50;99.90
12504;DHT22;6316;48.118;-1.690;2023-03-16T12:31:13;18.60;99.90
12504;DHT22;6316;48.118;-1.690;2023-03-16T12:39:05;18.70;99.90
12504;DHT22;6316;48.118;-1.690;2023-03-16T12:44:25;18.70;99.90
12504;DHT22;6316;48.118;-1.690;2023-03-16T12:49:40;18.70;99.90
12504;DHT22;6316;48.118;-1.690;2023-03-16T12:52:11;18.80;99.90
12504;DHT22;6316;48.118;-1.690;2023-03-16T12:54:51;18.90;99.90
12504;DHT22;6316;48.118;-1.690;2023-03-16T12:57:18;19.00;99.90
12504;DHT22;6316;48.118;-1.690;2023-03-16T12:59:46;19.00;99.90
12504;DHT22;6316;48.118;-1.690;2023-03-16T13:02:23;19.00;99.90
12504;DHT22;6316;48.118;-1.690;2023-03-16T13:05:00;18.90;99.90
12504;DHT22;6316;48.118;-1.690;2023-03-16T13:07:28;18.90;99.90
12504;DHT22;6316;48.118;-1.690;2023-03-16T13:10:16;18.90;99.90
12504;DHT22;6316;48.118;-1.690;2023-03-16T13:12:46;19.00;99.90
12504;DHT22;6316;48.118;-1.690;2023-03-16T13:15:27;19.10;99.90
12504;DHT22;6316;48.118;-1.690;2023-03-16T13:23:22;19.20;99.90
12504;DHT22;6316;48.118;-1.690;2023-03-16T13:26:29;19.20;99.90
12504;DHT22;6316;48.118;-1.690;2023-03-16T13:29:12;19.30;99.90
12504;DHT22;6316;48.118;-1.690;2023-03-16T13:31:40;19.30;99.90
12504;DHT22;6316;48.118;-1.690;2023-03-16T13:34:12;19.40;99.90
12504;DHT22;6316;48.118;-1.690;2023-03-16T13:36:39;19.40;99.90
12504;DHT22;6316;48.118;-1.690;2023-03-16T13:41:38;19.40;99.90
12504;DHT22;6316;48.118;-1.690;2023-03-16T13:44:10;19.40;99.90
12504;DHT22;6316;48.118;-1.690;2023-03-16T13:46:37;19.40;99.90
12504;DHT22;6316;48.118;-1.690;2023-03-16T13:49:03;19.40;99.90
12504;DHT22;6316;48.118;-1.690;2023-03-16T13:51:31;19.40;99.90
12504;DHT22;6316;48.118;-1.690;2023-03-16T13:54:22;19.50;99.90
12504;DHT22;6316;48.118;-1.690;2023-03-16T13:56:49;19.60;99.90
12504;DHT22;6316;48.118;-1.690;2023-03-16T13:59:16;19.60;99.90
12504;DHT22;6316;48.118;-1.690;2023-03-16T14:01:44;19.70;99.90
12504;DHT22;6316;48.118;-1.690;2023-03-16T14:04:11;19.70;99.90
12504;DHT22;6316;48.118;-1.690;2023-03-16T14:06:51;19.70;99.90
12504;DHT22;6316;48.118;-1.690;2023-03-16T14:09:21;19.80;99.90
12504;DHT22;6316;48.118;-1.690;2023-03-16T14:11:47;19.80;99.90
12504;DHT22;6316;48.118;-1.690;2023-03-16T14:14:15;19.80;99.90
12504;DHT22;6316;48.118;-1.690;2023-03-16T14:16:42;19.80;99.90
12504;DHT22;6316;48.118;-1.690;2023-03-16T14:19:20;19.80;99.90
12504;DHT22;6316;48.118;-1.690;2023-03-16T14:21:49;19.90;99.90
12504;DHT22;6316;48.118;-1.690;2023-03-16T14:26:47;20.00;99.90
12504;DHT22;6316;48.118;-1.690;2023-03-16T14:29:28;20.00;99.90
12504;DHT22;6316;48.118;-1.690;2023-03-16T14:31:55;20.00;99.90
12504;DHT22;6316;48.118;-1.690;2023-03-16T14:34:37;20.00;99.90
12504;DHT22;6316;48.118;-1.690;2023-03-16T14:37:15;19.90;99.90
12504;DHT22;6316;48.118;-1.690;2023-03-16T14:39:45;19.90;99.90
12504;DHT22;6316;48.118;-1.690;2023-03-16T14:42:29;19.80;99.90
12504;DHT22;6316;48.118;-1.690;2023-03-16T14:44:57;19.80;99.90
12504;DHT22;6316;48.118;-1.690;2023-03-16T14:47:27;19.70;99.90
12504;DHT22;6316;48.118;-1.690;2023-03-16T14:50:05;19.60;99.90
12504;DHT22;6316;48.118;-1.690;2023-03-16T14:52:32;19.50;99.90
12504;DHT22;6316;48.118;-1.690;2023-03-16T14:54:59;19.50;99.90
12504;DHT22;6316;48.118;-1.690;2023-03-16T14:57:26;19.50;99.90
12504;DHT22;6316;48.118;-1.690;2023-03-16T14:59:52;19.50;99.90
12504;DHT22;6316;48.118;-1.690;2023-03-16T15:02:29;19.50;99.90
12504;DHT22;6316;48.118;-1.690;2023-03-16T15:04:56;19.70;99.90
12504;DHT22;6316;48.118;-1.690;2023-03-16T15:07:30;19.80;99.90
12504;DHT22;6316;48.118;-1.690;2023-03-16T15:12:37;19.90;99.90
12504;DHT22;6316;48.118;-1.690;2023-03-16T15:15:13;19.90;99.90
12504;DHT22;6316;48.118;-1.690;2023-03-16T15:17:41;20.00;99.90
12504;DHT22;6316;48.118;-1.690;2023-03-16T15:20:13;20.00;99.90
12504;DHT22;6316;48.118;-1.690;2023-03-16T15:22:40;20.00;99.90
12504;DHT22;6316;48.118;-1.690;2023-03-16T15:27:53;20.10;99.90
12504;DHT22;6316;48.118;-1.690;2023-03-16T15:30:23;20.20;99.90
12504;DHT22;6316;48.118;-1.690;2023-03-16T15:32:50;20.30;99.90
12504;DHT22;6316;48.118;-1.690;2023-03-16T15:35:16;20.40;99.90
12504;DHT22;6316;48.118;-1.690;2023-03-16T15:37:42;20.40;99.90
12504;DHT22;6316;48.118;-1.690;2023-03-16T15:40:16;20.30;99.90
12504;DHT22;6316;48.118;-1.690;2023-03-16T15:42:42;20.30;99.90
12504;DHT22;6316;48.118;-1.690;2023-03-16T15:45:11;20.20;99.90
12504;DHT22;6316;48.118;-1.690;2023-03-16T15:47:38;20.20;99.90
12504;DHT22;6316;48.118;-1.690;2023-03-16T15:50:04;20.20;99.90
12504;DHT22;6316;48.118;-1.690;2023-03-16T15:52:33;20.10;99.90
12504;DHT22;6316;48.118;-1.690;2023-03-16T15:54:59;20.10;99.90
12504;DHT22;6316;48.118;-1.690;2023-03-16T15:57:30;20.10;99.90
12504;DHT22;6316;48.118;-1.690;2023-03-16T15:59:57;20.00;99.90
12504;DHT22;6316;48.118;-1.690;2023-03-16T16:02:28;19.90;99.90
12504;DHT22;6316;48.118;-1.690;2023-03-16T16:04:56;19.90;99.90
12504;DHT22;6316;48.118;-1.690;2023-03-16T16:07:22;19.80;99.90
12504;DHT22;6316;48.118;-1.690;2023-03-16T16:09:48;19.80;99.90
12504;DHT22;6316;48.118;-1.690;2023-03-16T16:12:14;19.80;99.90
12504;DHT22;6316;48.118;-1.690;2023-03-16T16:14:41;19.80;99.90
12504;DHT22;6316;48.118;-1.690;2023-03-16T16:17:13;19.80;99.90
12504;DHT22;6316;48.118;-1.690;2023-03-16T16:19:43;19.70;99.90
12504;DHT22;6316;48.118;-1.690;2023-03-16T16:22:12;19.60;99.90
12504;DHT22;6316;48.118;-1.690;2023-03-16T16:24:38;19.60;99.90
12504;DHT22;6316;48.118;-1.690;2023-03-16T16:27:05;19.50;99.90
12504;DHT22;6316;48.118;-1.690;2023-03-16T16:29:31;19.50;99.90
12504;DHT22;6316;48.118;-1.690;2023-03-16T16:31:58;19.40;99.90
12504;DHT22;6316;48.118;-1.690;2023-03-16T16:34:24;19.40;99.90
12504;DHT22;6316;48.118;-1.690;2023-03-16T16:36:52;19.30;99.90
12504;DHT22;6316;48.118;-1.690;2023-03-16T16:39:18;19.30;99.90
12504;DHT22;6316;48.118;-1.690;2023-03-16T16:41:44;19.20;99.90
12504;DHT22;6316;48.118;-1.690;2023-03-16T16:44:16;19.20;99.90
12504;DHT22;6316;48.118;-1.690;2023-03-16T16:46:42;19.20;99.90
12504;DHT22;6316;48.118;-1.690;2023-03-16T16:51:37;19.10;99.90
12504;DHT22;6316;48.118;-1.690;2023-03-16T16:54:30;19.10;99.90
12504;DHT22;6316;48.118;-1.690;2023-03-16T16:56:57;19.00;99.90
12504;DHT22;6316;48.118;-1.690;2023-03-16T16:59:24;19.00;99.90
12504;DHT22;6316;48.118;-1.690;2023-03-16T17:01:51;18.90;99.90
12504;DHT22;6316;48.118;-1.690;2023-03-16T17:04:23;18.90;99.90
12504;DHT22;6316;48.118;-1.690;2023-03-16T17:06:51;18.80;99.90
12504;DHT22;6316;48.118;-1.690;2023-03-16T17:09:21;18.70;99.90
12504;DHT22;6316;48.118;-1.690;2023-03-16T17:11:47;18.70;99.90
12504;DHT22;6316;48.118;-1.690;2023-03-16T17:14:18;18.60;99.90
12504;DHT22;6316;48.118;-1.690;2023-03-16T17:16:44;18.50;99.90
12504;DHT22;6316;48.118;-1.690;2023-03-16T17:19:24;18.50;99.90
12504;DHT22;6316;48.118;-1.690;2023-03-16T17:21:52;18.40;99.90
12504;DHT22;6316;48.118;-1.690;2023-03-16T17:24:20;18.30;99.90
12504;DHT22;6316;48.118;-1.690;2023-03-16T17:26:57;18.30;99.90
12504;DHT22;6316;48.118;-1.690;2023-03-16T17:29:30;18.20;99.90
12504;DHT22;6316;48.118;-1.690;2023-03-16T17:31:58;18.10;99.90
12504;DHT22;6316;48.118;-1.690;2023-03-16T17:34:27;18.10;99.90
12504;DHT22;6316;48.118;-1.690;2023-03-16T17:36:54;18.00;99.90
12504;DHT22;6316;48.118;-1.690;2023-03-16T17:42:09;17.90;99.90
12504;DHT22;6316;48.118;-1.690;2023-03-16T17:44:42;17.80;99.90
12504;DHT22;6316;48.118;-1.690;2023-03-16T17:47:15;17.70;99.90
12504;DHT22;6316;48.118;-1.690;2023-03-16T17:49:42;17.70;99.90
12504;DHT22;6316;48.118;-1.690;2023-03-16T17:52:15;17.60;99.90
12504;DHT22;6316;48.118;-1.690;2023-03-16T17:54:46;17.60;99.90
12504;DHT22;6316;48.118;-1.690;2023-03-16T17:57:15;17.50;99.90
12504;DHT22;6316;48.118;-1.690;2023-03-16T17:59:43;17.50;99.90
12504;DHT22;6316;48.118;-1.690;2023-03-16T18:02:34;17.40;99.90
12504;DHT22;6316;48.118;-1.690;2023-03-16T18:05:01;17.30;99.90
12504;DHT22;6316;48.118;-1.690;2023-03-16T18:07:30;17.30;99.90
12504;DHT22;6316;48.118;-1.690;2023-03-16T18:09:55;17.30;99.90
12504;DHT22;6316;48.118;-1.690;2023-03-16T18:12:21;17.10;99.90
12504;DHT22;6316;48.118;-1.690;2023-03-16T18:14:47;17.10;99.90
12504;DHT22;6316;48.118;-1.690;2023-03-16T18:19:48;16.90;99.90
12504;DHT22;6316;48.118;-1.690;2023-03-16T18:22:22;16.90;99.90
12504;DHT22;6316;48.118;-1.690;2023-03-16T18:24:51;16.80;99.90
12504;DHT22;6316;48.118;-1.690;2023-03-16T18:27:18;16.70;99.90
12504;DHT22;6316;48.118;-1.690;2023-03-16T18:29:44;16.70;99.90
12504;DHT22;6316;48.118;-1.690;2023-03-16T18:32:25;16.60;99.90
12504;DHT22;6316;48.118;-1.690;2023-03-16T18:34:53;16.60;99.90
12504;DHT22;6316;48.118;-1.690;2023-03-16T18:37:23;16.50;99.90
12504;DHT22;6316;48.118;-1.690;2023-03-16T18:39:49;16.40;99.90
12504;DHT22;6316;48.118;-1.690;2023-03-16T18:42:20;16.40;99.90
12504;DHT22;6316;48.118;-1.690;2023-03-16T18:44:46;16.40;99.90
12504;DHT22;6316;48.118;-1.690;2023-03-16T18:47:18;16.30;99.90
12504;DHT22;6316;48.118;-1.690;2023-03-16T18:49:45;16.30;99.90
12504;DHT22;6316;48.118;-1.690;2023-03-16T18:52:19;16.20;99.90
12504;DHT22;6316;48.118;-1.690;2023-03-16T18:54:45;16.10;99.90
12504;DHT22;6316;48.118;-1.690;2023-03-16T18:57:21;16.10;99.90
12504;DHT22;6316;48.118;-1.690;2023-03-16T18:59:47;16.00;99.90
12504;DHT22;6316;48.118;-1.690;2023-03-16T19:02:25;16.00;99.90
12504;DHT22;6316;48.118;-1.690;2023-03-16T19:04:53;15.90;99.90
12504;DHT22;6316;48.118;-1.690;2023-03-16T19:07:26;15.90;99.90
12504;DHT22;6316;48.118;-1.690;2023-03-16T19:09:53;15.80;99.90
12504;DHT22;6316;48.118;-1.690;2023-03-16T19:12:19;15.80;99.90
12504;DHT22;6316;48.118;-1.690;2023-03-16T19:14:45;15.70;99.90
12504;DHT22;6316;48.118;-1.690;2023-03-16T19:17:11;15.70;99.90
12504;DHT22;6316;48.118;-1.690;2023-03-16T19:19:37;15.70;99.90
12504;DHT22;6316;48.118;-1.690;2023-03-16T19:22:06;15.60;99.90
12504;DHT22;6316;48.118;-1.690;2023-03-16T19:24:44;15.60;99.90
12504;DHT22;6316;48.118;-1.690;2023-03-16T19:27:20;15.60;99.90
12504;DHT22;6316;48.118;-1.690;2023-03-16T19:29:46;15.50;99.90
12504;DHT22;6316;48.118;-1.690;2023-03-16T19:32:19;15.50;99.90
12504;DHT22;6316;48.118;-1.690;2023-03-16T19:34:46;15.50;99.90
12504;DHT22;6316;48.118;-1.690;2023-03-16T19:37:13;15.40;99.90
12504;DHT22;6316;48.118;-1.690;2023-03-16T19:39:44;15.40;99.90
12504;DHT22;6316;48.118;-1.690;2023-03-16T19:42:31;15.40;99.90
12504;DHT22;6316;48.118;-1.690;2023-03-16T19:45:02;15.40;99.90
12504;DHT22;6316;48.118;-1.690;2023-03-16T19:47:30;15.40;99.90
12504;DHT22;6316;48.118;-1.690;2023-03-16T19:49:57;15.40;99.90
12504;DHT22;6316;48.118;-1.690;2023-03-16T19:52:23;15.40;99.90
12504;DHT22;6316;48.118;-1.690;2023-03-16T19:54:49;15.40;99.90
12504;DHT22;6316;48.118;-1.690;2023-03-16T19:57:17;15.40;99.90
12504;DHT22;6316;48.118;-1.690;2023-03-16T19:59:48;15.40;99.90
12504;DHT22;6316;48.118;-1.690;2023-03-16T20:02:36;15.40;99.90
12504;DHT22;6316;48.118;-1.690;2023-03-16T20:05:02;15.40;99.90
12504;DHT22;6316;48.118;-1.690;2023-03-16T20:07:28;15.40;99.90
12504;DHT22;6316;48.118;-1.690;2023-03-16T20:09:54;15.40;99.90
12504;DHT22;6316;48.118;-1.690;2023-03-16T20:12:26;15.40;99.90
12504;DHT22;6316;48.118;-1.690;2023-03-16T20:14:53;15.40;99.90
12504;DHT22;6316;48.118;-1.690;2023-03-16T20:17:25;15.40;99.90
12504;DHT22;6316;48.118;-1.690;2023-03-16T20:19:53;15.40;99.90
12504;DHT22;6316;48.118;-1.690;2023-03-16T20:22:21;15.40;99.90
12504;DHT22;6316;48.118;-1.690;2023-03-16T20:24:48;15.40;99.90
12504;DHT22;6316;48.118;-1.690;2023-03-16T20:27:16;15.40;99.90
12504;DHT22;6316;48.118;-1.690;2023-03-16T20:29:43;15.40;99.90
12504;DHT22;6316;48.118;-1.690;2023-03-16T20:32:32;15.30;99.90
12504;DHT22;6316;48.118;-1.690;2023-03-16T20:34:59;15.30;99.90
12504;DHT22;6316;48.118;-1.690;2023-03-16T20:37:27;15.30;99.90
12504;DHT22;6316;48.118;-1.690;2023-03-16T20:39:55;15.30;99.90
12504;DHT22;6316;48.118;-1.690;2023-03-16T20:42:31;15.30;99.90
12504;DHT22;6316;48.118;-1.690;2023-03-16T20:44:57;15.30;99.90
12504;DHT22;6316;48.118;-1.690;2023-03-16T20:47:24;15.30;99.90
12504;DHT22;6316;48.118;-1.690;2023-03-16T20:49:51;15.30;99.90
12504;DHT22;6316;48.118;-1.690;2023-03-16T20:52:23;15.30;99.90
12504;DHT22;6316;48.118;-1.690;2023-03-16T20:54:50;15.30;99.90
12504;DHT22;6316;48.118;-1.690;2023-03-16T20:57:22;15.30;99.90
12504;DHT22;6316;48.118;-1.690;2023-03-16T20:59:49;15.30;99.90
12504;DHT22;6316;48.118;-1.690;2023-03-16T21:04:52;15.30;99.90
12504;DHT22;6316;48.118;-1.690;2023-03-16T21:07:19;15.30;99.90
12504;DHT22;6316;48.118;-1.690;2023-03-16T21:09:44;15.30;99.90
12504;DHT22;6316;48.118;-1.690;2023-03-16T21:12:37;15.30;99.90
12504;DHT22;6316;48.118;-1.690;2023-03-16T21:15:26;15.30;99.90
12504;DHT22;6316;48.118;-1.690;2023-03-16T21:18:02;15.20;99.90
12504;DHT22;6316;48.118;-1.690;2023-03-16T21:20:31;15.20;99.90
12504;DHT22;6316;48.118;-1.690;2023-03-16T21:22:57;15.20;99.90
12504;DHT22;6316;48.118;-1.690;2023-03-16T21:25:35;15.20;99.90
12504;DHT22;6316;48.118;-1.690;2023-03-16T21:28:04;15.20;99.90
12504;DHT22;6316;48.118;-1.690;2023-03-16T21:30:32;15.20;99.90
12504;DHT22;6316;48.118;-1.690;2023-03-16T21:33:00;15.20;99.90
12504;DHT22;6316;48.118;-1.690;2023-03-16T21:35:34;15.20;99.90
12504;DHT22;6316;48.118;-1.690;2023-03-16T21:38:13;15.20;99.90
12504;DHT22;6316;48.118;-1.690;2023-03-16T21:40:39;15.10;99.90
12504;DHT22;6316;48.118;-1.690;2023-03-16T21:43:04;15.10;99.90
12504;DHT22;6316;48.118;-1.690;2023-03-16T21:45:30;15.10;99.90
12504;DHT22;6316;48.118;-1.690;2023-03-16T21:47:56;15.00;99.90
12504;DHT22;6316;48.118;-1.690;2023-03-16T21:50:32;15.00;99.90
12504;DHT22;6316;48.118;-1.690;2023-03-16T21:52:58;15.00;99.90
12504;DHT22;6316;48.118;-1.690;2023-03-16T21:55:26;14.90;99.90
12504;DHT22;6316;48.118;-1.690;2023-03-16T21:57:55;14.90;99.90
12504;DHT22;6316;48.118;-1.690;2023-03-16T22:00:26;14.90;99.90
12504;DHT22;6316;48.118;-1.690;2023-03-16T22:02:55;14.90;99.90
12504;DHT22;6316;48.118;-1.690;2023-03-16T22:07:57;14.80;99.90
12504;DHT22;6316;48.118;-1.690;2023-03-16T22:10:24;14.80;99.90
12504;DHT22;6316;48.118;-1.690;2023-03-16T22:12:52;14.80;99.90
12504;DHT22;6316;48.118;-1.690;2023-03-16T22:15:18;14.70;99.90
12504;DHT22;6316;48.118;-1.690;2023-03-16T22:17:45;14.70;99.90
12504;DHT22;6316;48.118;-1.690;2023-03-16T22:20:21;14.70;99.90
12504;DHT22;6316;48.118;-1.690;2023-03-16T22:22:48;14.60;99.90
12504;DHT22;6316;48.118;-1.690;2023-03-16T22:25:17;14.70;99.90
12504;DHT22;6316;48.118;-1.690;2023-03-16T22:27:43;14.60;99.90
12504;DHT22;6316;48.118;-1.690;2023-03-16T22:30:16;14.60;99.90
12504;DHT22;6316;48.118;-1.690;2023-03-16T22:32:44;14.60;99.90
12504;DHT22;6316;48.118;-1.690;2023-03-16T22:35:24;14.60;99.90
12504;DHT22;6316;48.118;-1.690;2023-03-16T22:37:51;14.50;99.90
12504;DHT22;6316;48.118;-1.690;2023-03-16T22:40:18;14.50;99.90
12504;DHT22;6316;48.118;-1.690;2023-03-16T22:42:44;14.50;99.90
12504;DHT22;6316;48.118;-1.690;2023-03-16T22:45:21;14.50;99.90
12504;DHT22;6316;48.118;-1.690;2023-03-16T22:47:47;14.40;99.90
12504;DHT22;6316;48.118;-1.690;2023-03-16T22:50:13;14.40;99.90
12504;DHT22;6316;48.118;-1.690;2023-03-16T22:52:39;14.30;99.90
12504;DHT22;6316;48.118;-1.690;2023-03-16T22:55:06;14.40;99.90
12504;DHT22;6316;48.118;-1.690;2023-03-16T22:57:33;14.40;99.90
12504;DHT22;6316;48.118;-1.690;2023-03-16T23:00:00;14.40;99.90
12504;DHT22;6316;48.118;-1.690;2023-03-16T23:02:31;14.40;99.90
12504;DHT22;6316;48.118;-1.690;2023-03-16T23:04:56;14.40;99.90
12504;DHT22;6316;48.118;-1.690;2023-03-16T23:07:22;14.30;99.90
12504;DHT22;6316;48.118;-1.690;2023-03-16T23:09:48;14.30;99.90
12504;DHT22;6316;48.118;-1.690;2023-03-16T23:12:18;14.30;99.90
12504;DHT22;6316;48.118;-1.690;2023-03-16T23:14:44;14.30;99.90
12504;DHT22;6316;48.118;-1.690;2023-03-16T23:17:20;14.30;99.90
12504;DHT22;6316;48.118;-1.690;2023-03-16T23:19:49;14.30;99.90
12504;DHT22;6316;48.118;-1.690;2023-03-16T23:22:16;14.20;99.90
12504;DHT22;6316;48.118;-1.690;2023-03-16T23:24:42;14.20;99.90
12504;DHT22;6316;48.118;-1.690;2023-03-16T23:27:18;14.20;99.90
12504;DHT22;6316;48.118;-1.690;2023-03-16T23:29:44;14.20;99.90
12504;DHT22;6316;48.118;-1.690;2023-03-16T23:32:10;14.20;99.90
12504;DHT22;6316;48.118;-1.690;2023-03-16T23:34:36;14.10;99.90
12504;DHT22;6316;48.118;-1.690;2023-03-16T23:37:01;14.10;99.90
12504;DHT22;6316;48.118;-1.690;2023-03-16T23:39:27;14.10;99.90
12504;DHT22;6316;48.118;-1.690;2023-03-16T23:41:53;14.00;99.90
12504;DHT22;6316;48.118;-1.690;2023-03-16T23:44:24;14.00;99.90
12504;DHT22;6316;48.118;-1.690;2023-03-16T23:46:50;14.00;99.90
12504;DHT22;6316;48.118;-1.690;2023-03-16T23:49:22;13.90;99.90
12504;DHT22;6316;48.118;-1.690;2023-03-16T23:51:50;14.00;99.90
12504;DHT22;6316;48.118;-1.690;2023-03-16T23:54:21;13.90;99.90
12504;DHT22;6316;48.118;-1.690;2023-03-16T23:56:48;13.90;99.90
12504;DHT22;6316;48.118;-1.690;2023-03-16T23:59:14;13.90;99.90
